Latest Weather Observations for Bankstown

IDN60801

Issued at 2:32 pm EST Thursday 28 May 2020 (issued every 10 minutes, with the page automatically refreshed every 10 minutes)

About weather observations | Map of weather stations | Latest weather observations for NSW | Other Formats
Station Details ID: 066137 Name: BANKSTOWN AIRPORT AWS Lat: -33.92 Lon: 150.98 Height: 7.2 m
Data from the previous 72 hours. | See also: Recent months at Bankstown
Date/Time
EST
Temp
°C
App
Temp
°C
Dew
Point
°C
Rel
Hum
%
Delta-T
°C
Wind Press
QNH
hPa
Press
MSL
hPa
Rain since
9am
mm
Dir  Spd
km/h
Gust
km/h
Spd
kts
Gust
kts
28/02:30pm 21.7 19.6 9.6 46 6.5 SW 11 17 6 9 1019.0 1019.0 0.0
28/02:00pm 21.6 19.6 10.1 48 6.2 WSW 11 17 6 9 1019.1 1019.1 0.0
28/01:30pm 21.3 19.1 10.8 51 5.8 WSW 13 20 7 11 1019.1 1019.1 0.0
28/01:00pm 20.6 17.9 10.4 52 5.5 W 15 20 8 11 1019.5 1019.5 0.0
28/12:30pm 20.0 17.9 11.0 56 4.9 W 13 19 7 10 1019.9 1019.9 0.0
28/12:00pm 19.3 17.2 11.1 59 4.5 W 13 19 7 10 1020.3 1020.3 0.0
28/11:30am 18.8 16.9 10.6 59 4.4 WNW 11 17 6 9 1020.7 1020.7 0.0
28/11:00am 18.1 15.7 10.0 59 4.3 WNW 13 17 7 9 1021.2 1021.2 0.0
28/10:30am 17.2 15.2 10.3 64 3.7 WNW 11 17 6 9 1021.5 1021.5 0.0
28/10:00am 16.1 14.6 10.6 70 2.9 NW 9 13 5 7 1021.9 1021.9 0.0
28/09:30am 15.3 14.1 11.5 78 2.0 WNW 9 11 5 6 1022.0 1022.0 0.0
28/09:00am 13.6 12.0 10.2 80 1.8 WNW 9 13 5 7 1021.8 1021.8 0.0
28/08:30am 12.4 11.2 10.3 87 1.1 WNW 7 9 4 5 1021.8 1021.8 0.0
28/08:00am 11.4 10.3 10.6 95 0.4 WNW 7 11 4 6 1021.6 1021.6 0.0
28/07:30am 10.4 9.6 9.8 96 0.3 NNW 4 7 2 4 1021.4 1021.4 0.0
28/07:00am 9.8 8.3 9.3 97 0.2 NNW 7 9 4 5 1021.0 1021.0 0.0
28/06:30am 9.4 8.0 8.8 96 0.3 NW 6 7 3 4 1020.9 1020.9 0.0
28/06:00am 9.4 9.1 8.8 96 0.3 CALM 0 0 0 0 1020.5 1020.5 0.0
28/05:30am 9.5 9.3 8.9 96 0.3 CALM 0 0 0 0 1020.2 1020.2 0.0
28/05:00am 9.5 9.2 8.7 95 0.4 CALM 0 0 0 0 1020.2 1020.2 0.0
28/04:30am 9.8 9.6 9.0 95 0.4 CALM 0 0 0 0 1019.9 1019.9 0.0
28/04:00am 10.3 9.8 9.5 95 0.4 WNW 2 7 1 4 1020.0 1020.0 0.0
28/03:30am 10.6 10.6 9.8 95 0.4 CALM 0 0 0 0 1020.1 1020.1 0.0
28/03:00am 10.8 10.9 10.0 95 0.4 CALM 0 0 0 0 1020.3 1020.3 0.0
28/02:30am 10.9 11.0 10.1 95 0.4 CALM 0 0 0 0 1020.2 1020.2 0.0
28/02:00am 10.9 11.0 10.1 95 0.4 CALM 0 0 0 0 1020.3 1020.3 0.0
28/01:30am 11.2 11.4 10.4 95 0.4 CALM 0 0 0 0 1020.3 1020.3 0.0
28/01:00am 11.0 11.1 10.2 95 0.4 CALM 0 0 0 0 1020.2 1020.2 0.0
28/12:30am 11.2 11.4 10.4 95 0.4 CALM 0 0 0 0 1020.2 1020.2 0.0
28/12:00am 11.0 11.1 10.2 95 0.4 CALM 0 0 0 0 1020.3 1020.3 0.0
 
Date/Time
EST
Temp
°C
App
Temp
°C
Dew
Point
°C
Rel
Hum
%
Delta-T
°C
Wind Press
QNH
hPa
Press
MSL
hPa
Rain since
9am
mm
Dir  Spd
km/h
Gust
km/h
Spd
kts
Gust
kts
27/11:30pm 10.9 11.0 10.0 94 0.5 CALM 0 0 0 0 1020.4 1020.4 0.0
27/11:00pm 11.0 11.1 10.1 94 0.5 CALM 0 0 0 0 1020.8 1020.8 0.0
27/10:30pm 11.6 11.8 10.7 94 0.5 CALM 0 0 0 0 1021.0 1021.0 0.0
27/10:00pm 12.2 12.6 11.1 93 0.6 CALM 0 0 0 0 1021.2 1021.2 0.0
27/09:30pm 12.5 12.9 11.2 92 0.7 CALM 0 0 0 0 1021.1 1021.1 0.0
27/09:00pm 13.0 13.5 11.6 91 0.7 CALM 0 0 0 0 1021.0 1021.0 0.0
27/08:30pm 13.5 14.0 11.7 89 1.0 CALM 0 0 0 0 1021.1 1021.1 0.0
27/08:00pm 14.1 14.8 12.1 88 1.1 CALM 0 0 0 0 1021.0 1021.0 0.0
27/07:30pm 14.2 14.9 12.1 87 1.1 CALM 0 0 0 0 1020.9 1020.9 0.0
27/07:00pm 14.5 15.1 12.0 85 1.3 CALM 0 0 0 0 1020.8 1020.8 0.0
27/06:30pm 14.7 15.2 11.5 81 1.7 CALM 0 0 0 0 1020.6 1020.6 0.0
27/06:00pm 15.4 14.2 11.6 78 2.0 SE 9 9 5 5 1020.2 1020.2 0.0
27/05:30pm 15.5 14.3 11.5 77 2.2 SE 9 11 5 6 1020.1 1020.1 0.0
27/05:00pm 16.5 15.0 11.9 74 2.5 ESE 11 13 6 7 1019.7 1019.7 0.0
27/04:30pm 16.9 15.4 12.0 73 2.7 SE 11 15 6 8 1019.6 1019.6 0.0
27/04:00pm 17.9 16.3 11.7 67 3.4 SE 11 17 6 9 1019.8 1019.8 0.0
27/03:30pm 18.9 18.0 11.2 61 4.2 E 7 11 4 6 1019.7 1019.7 0.0
27/03:00pm 18.9 17.7 11.5 62 4.0 E 9 13 5 7 1019.7 1019.7 0.0
27/02:30pm 18.2 16.9 11.3 64 3.8 SSE 9 11 5 6 1019.9 1019.9 0.0
27/02:00pm 19.3 17.7 11.6 61 4.2 S 11 15 6 8 1020.2 1020.2 0.0
27/01:30pm 20.2 19.8 11.1 56 5.0 ENE 4 9 2 5 1020.4 1020.4 0.0
27/01:00pm 19.7 18.8 11.2 58 4.6 NW 7 11 4 6 1020.7 1020.7 0.0
27/12:30pm 19.0 18.1 10.8 59 4.4 NNE 6 9 3 5 1020.9 1020.9 0.0
27/12:00pm 18.9 18.3 11.7 63 3.9 SW 6 9 3 5 1021.2 1021.2 0.0
27/11:30am 17.9 17.4 12.1 69 3.2 SW 6 11 3 6 1021.8 1021.8 0.0
27/11:00am 17.4 17.2 11.7 69 3.1 SW 4 11 2 6 1022.3 1022.3 0.0
27/10:30am 16.4 15.0 10.9 70 2.9 WSW 9 13 5 7 1022.7 1022.7 0.0
27/10:00am 15.8 14.4 11.0 73 2.6 SW 9 11 5 6 1023.0 1023.0 0.0
27/09:30am 14.9 13.8 10.5 75 2.3 SW 7 11 4 6 1022.9 1022.9 0.0
27/09:00am 14.0 12.5 10.4 79 1.9 WSW 9 13 5 7 1023.1 1023.1 2.0
27/08:30am 13.3 11.8 10.5 83 1.5 SW 9 13 5 7 1023.3 1023.3 1.8
27/08:00am 12.4 11.4 11.0 91 0.7 W 7 11 4 6 1023.0 1023.0 1.8
27/07:30am 11.3 10.4 10.5 95 0.4 NW 6 7 3 4 1022.9 1022.9 1.8
27/07:00am 10.8 9.1 10.0 95 0.4 NW 9 13 5 7 1022.7 1022.7 1.8
27/06:30am 10.3 8.9 9.4 94 0.4 S 7 9 4 5 1022.2 1022.2 1.8
27/06:00am 10.7 10.7 9.8 94 0.5 CALM 0 0 0 0 1022.2 1022.2 1.8
27/05:30am 10.7 10.6 9.6 93 0.6 CALM 0 0 0 0 1022.1 1022.1 1.6
27/05:00am 11.5 10.3 10.4 93 0.6 W 7 11 4 6 1022.2 1022.2 1.6
27/04:30am 11.7 10.7 10.4 92 0.7 ESE 6 9 3 5 1022.4 1022.4 1.6
27/04:00am 12.0 11.1 10.6 91 0.7 W 6 11 3 6 1022.4 1022.4 1.6
27/03:30am 12.5 11.5 11.1 91 0.7 WNW 7 13 4 7 1022.4 1022.4 1.4
27/03:00am 12.5 10.8 11.2 92 0.7 W 11 13 6 7 1022.7 1022.7 1.4
27/02:30am 12.4 11.1 11.1 92 0.7 W 9 11 5 6 1022.8 1022.8 1.4
27/02:00am 12.6 11.3 11.2 91 0.7 WNW 9 11 5 6 1022.9 1022.9 1.4
27/01:30am 13.2 11.6 11.6 90 0.9 W 11 13 6 7 1023.2 1023.2 1.2
27/01:00am 13.5 12.1 12.2 92 0.7 WSW 11 15 6 8 1023.2 1023.2 1.2
27/12:30am 13.5 12.9 12.4 93 0.6 W 7 13 4 7 1023.4 1023.4 1.0
27/12:00am 13.5 12.2 12.4 93 0.6 WSW 11 15 6 8 1023.5 1023.5 1.0
 
Date/Time
EST
Temp
°C
App
Temp
°C
Dew
Point
°C
Rel
Hum
%
Delta-T
°C
Wind Press
QNH
hPa
Press
MSL
hPa
Rain since
9am
mm
Dir  Spd
km/h
Gust
km/h
Spd
kts
Gust
kts
26/11:30pm 13.8 11.6 12.2 90 0.9 SW 15 19 8 10 1023.7 1023.7 1.0
26/11:00pm 13.9 12.9 12.3 90 0.9 SW 9 13 5 7 1023.6 1023.6 0.8
26/10:30pm 14.0 12.9 11.9 87 1.1 W 9 13 5 7 1023.4 1023.4 0.8
26/10:00pm 14.0 12.4 11.5 85 1.3 WSW 11 15 6 8 1023.4 1023.4 0.8
26/09:30pm 14.2 13.5 11.5 84 1.4 WSW 6 9 3 5 1023.4 1023.4 0.8
26/09:00pm 14.3 13.5 11.8 85 1.3 SW 7 11 4 6 1023.3 1023.3 0.8
26/08:30pm 14.1 13.0 12.1 88 1.1 SW 9 15 5 8 1023.2 1023.2 0.8
26/08:00pm 14.1 13.0 12.0 87 1.1 SSW 9 13 5 7 1023.5 1023.5 0.8
26/07:30pm 14.2 13.1 11.9 86 1.2 WSW 9 13 5 7 1023.2 1023.2 0.8
26/07:00pm 14.9 13.8 11.9 82 1.6 SW 9 13 5 7 1023.1 1023.1 0.8
26/06:30pm 15.3 14.0 11.1 76 2.2 SSW 9 11 5 6 1022.8 1022.8 0.8
26/06:00pm 15.3 14.0 11.3 77 2.1 S 9 15 5 8 1022.7 1022.7 0.8
26/05:30pm 15.5 13.9 11.5 77 2.2 SSW 11 19 6 10 1022.5 1022.5 0.8
26/05:00pm 16.9 14.0 9.8 63 3.7 S 15 24 8 13 1022.2 1022.2 0.8
26/04:30pm 16.4 14.9 12.0 75 2.4 S 11 15 6 8 1022.2 1022.2 0.8
26/04:00pm 16.9 15.2 11.2 69 3.1 SW 11 15 6 8 1021.9 1021.9 0.6
26/03:30pm 17.1 13.2 10.9 67 3.3 SSE 22 35 12 19 1021.6 1021.6 0.6
26/03:00pm 18.5 14.6 10.8 61 4.1 S 22 32 12 17 1021.4 1021.4 0.6
26/02:30pm 18.0 14.7 11.6 66 3.5 SSE 20 30 11 16 1021.5 1021.5 0.6
26/02:00pm 17.5 14.0 10.9 65 3.5 S 20 30 11 16 1021.4 1021.4 0.6
26/01:30pm 18.3 15.0 10.9 62 4.0 S 19 30 10 16 1021.3 1021.3 0.6
26/01:00pm 18.5 14.1 10.3 59 4.4 S 24 33 13 18 1021.7 1021.7 0.6
26/12:30pm 18.6 14.8 11.2 62 4.0 SSE 22 33 12 18 1021.9 1021.9 0.4
26/12:00pm 18.0 16.1 13.1 73 2.7 S 15 19 8 10 1022.1 1022.1 0.4
26/11:30am 17.6 16.6 14.5 82 1.8 SSW 13 17 7 9 1022.5 1022.5 0.2
26/11:00am 16.7 14.8 14.3 86 1.4 SSW 17 26 9 14 1022.8 1022.8 0.2
26/10:58am 16.5 14.6 14.2 86 1.3 SSW 17 26 9 14 1022.8 1022.8 0.2
26/10:42am 16.0 14.0 13.8 87 1.2 SSW 17 22 9 12 1023.0 1023.0 0.0
26/10:30am 16.4 14.3 13.7 84 1.5 SSW 17 28 9 15 1023.0 1023.0 0.0
26/10:13am 17.0 14.4 13.3 79 2.1 SSW 19 28 10 15 1022.8 1022.8 0.0
26/10:12am 17.1 14.6 13.4 79 2.1 SSW 19 26 10 14 1022.8 1022.8 0.0
26/10:00am 17.3 15.0 14.0 81 1.9 S 19 28 10 15 1022.7 1022.7 0.0
26/09:56am 16.9 15.2 13.6 81 1.9 SSW 15 28 8 15 1022.7 1022.7 0.0
26/09:54am 17.0 15.5 14.1 83 1.7 SSW 15 28 8 15 1022.8 1022.8 0.0
26/09:30am 15.9 14.5 13.4 85 1.4 SW 13 17 7 9 1022.9 1022.9 0.0
26/09:00am 15.0 13.8 12.7 86 1.3 WSW 11 15 6 8 1022.9 1022.9 5.4
26/08:47am 14.4 13.1 12.4 88 1.1 WSW 11 15 6 8 1022.6 1022.6 5.2
26/08:30am 14.2 13.2 12.4 89 1.0 WSW 9 11 5 6 1022.5 1022.5 5.2
26/08:00am 13.8 13.0 11.7 87 1.1 WSW 7 9 4 5 1022.4 1022.4 5.2
26/07:30am 13.5 12.6 11.4 87 1.1 SW 7 9 4 5 1022.3 1022.3 5.2
26/07:00am 13.3 12.4 11.2 87 1.1 WSW 7 9 4 5 1022.0 1022.0 5.0
26/06:30am 13.3 12.4 11.2 87 1.1 WSW 7 9 4 5 1021.8 1021.8 4.8
26/06:00am 13.4 11.6 10.9 85 1.3 WSW 11 17 6 9 1021.4 1021.4 4.8
26/05:30am 13.4 11.7 11.1 86 1.2 SW 11 17 6 9 1021.4 1021.4 4.6
26/05:00am 13.4 11.3 11.1 86 1.2 SW 13 19 7 10 1021.1 1021.1 4.4
26/04:30am 13.2 11.5 11.1 87 1.1 WSW 11 15 6 8 1020.9 1020.9 4.4
26/04:00am 13.5 11.7 11.0 85 1.3 SW 11 13 6 7 1020.8 1020.8 4.2
26/03:30am 13.4 11.7 11.1 86 1.2 SW 11 15 6 8 1020.9 1020.9 4.0
26/03:00am 13.3 11.2 11.0 86 1.2 SW 13 17 7 9 1020.8 1020.8 3.8
26/02:30am 13.4 11.3 11.1 86 1.2 SW 13 19 7 10 1020.9 1020.9 3.6
26/02:00am 13.8 11.4 11.3 85 1.3 SW 15 19 8 10 1020.9 1020.9 3.2
26/01:30am 13.4 12.0 10.9 85 1.3 SW 9 13 5 7 1021.0 1021.0 3.0
26/01:00am 13.4 12.1 11.1 86 1.2 SW 9 15 5 8 1021.0 1021.0 2.8
26/12:30am 13.3 11.7 11.7 90 0.9 SW 11 17 6 9 1021.3 1021.3 2.8
26/12:00am 13.7 11.8 11.8 88 1.0 SSW 13 20 7 11 1021.2 1021.2 2.6
 
Date/Time
EST
Temp
°C
App
Temp
°C
Dew
Point
°C
Rel
Hum
%
Delta-T
°C
Wind Press
QNH
hPa
Press
MSL
hPa
Rain since
9am
mm
Dir  Spd
km/h
Gust
km/h
Spd
kts
Gust
kts
25/11:30pm 13.7 11.4 11.8 88 1.0 SW 15 20 8 11 1021.1 1021.1 2.4
25/11:00pm 13.6 12.5 12.0 90 0.9 SW 9 15 5 8 1021.0 1021.0 2.2
25/10:30pm 13.7 11.9 12.1 90 0.9 SW 13 20 7 11 1020.9 1020.9 2.0
25/10:00pm 13.8 12.8 12.4 91 0.8 SSW 9 15 5 8 1020.9 1020.9 1.8
25/09:56pm 13.8 12.8 12.4 91 0.8 SSW 9 13 5 7 1020.8 1020.8 1.8
25/09:42pm 13.8 12.4 12.2 90 0.9 SSW 11 19 6 10 1020.6 1020.6 1.6
25/09:30pm 13.9 12.5 12.3 90 0.9 SSW 11 15 6 8 1020.6 1020.6 1.6
25/09:00pm 14.0 11.4 12.0 88 1.1 SSW 17 28 9 15 1020.3 1020.3 1.4
25/08:30pm 14.4 11.7 11.7 84 1.4 SSW 17 28 9 15 1019.9 1019.9 1.2
25/08:00pm 14.5 11.8 11.7 83 1.5 SSW 17 30 9 16 1019.7 1019.7 0.6
25/07:30pm 14.9 12.1 11.3 79 1.9 SSW 17 30 9 16 1019.4 1019.4 0.4
25/07:00pm 15.0 11.2 11.2 78 2.0 SSW 22 33 12 18 1019.2 1019.2 0.2
25/06:30pm 15.0 10.8 11.2 78 2.0 SSW 24 41 13 22 1019.0 1019.0 0.2
25/06:00pm 15.1 11.3 11.3 78 2.0 SSW 22 41 12 22 1018.7 1018.7 0.2
25/05:30pm 15.1 11.3 11.1 77 2.1 SSW 22 33 12 18 1018.3 1018.3 0.2
25/05:00pm 15.3 11.8 10.9 75 2.3 SSW 20 32 11 17 1018.0 1018.0 0.0
25/04:30pm 16.1 12.5 10.4 69 3.0 SSW 20 41 11 22 1017.8 1017.8 0.0
25/04:00pm 16.3 12.5 9.9 66 3.3 SSW 20 32 11 17 1017.6 1017.6 0.0
25/03:30pm 16.3 12.5 9.9 66 3.4 SSW 20 30 11 16 1017.4 1017.4 0.0
25/03:00pm 16.9 13.2 10.3 65 3.5 SW 20 30 11 16 1017.2 1017.2 0.0

Other formats

Comma delimited format used in spreadsheet applications
http://www.bom.gov.au/fwo/IDN60801/IDN60801.94765.axf

JavaScript Object Notation format (JSON) in row-major order
http://www.bom.gov.au/fwo/IDN60801/IDN60801.94765.json

Data quality

Most of these data are generated automatically and are frequently updated. Quality checks on data are not normally performed. It is possible for incorrect values to appear. Refer to information at About Latest Weather Observations and please check the disclaimer before using these data.